createdAt,value
2022-12-13T00:00:21.221Z,37
2022-12-13T00:01:21.207Z,38
2022-12-13T00:02:21.267Z,41
2022-12-13T00:03:21.123Z,36
2022-12-13T00:04:21.269Z,39
2022-12-13T00:05:21.209Z,39
2022-12-13T00:06:21.147Z,37
2022-12-13T00:07:21.122Z,39
2022-12-13T00:08:21.161Z,32
2022-12-13T00:09:21.181Z,36
2022-12-13T00:10:21.261Z,37
2022-12-13T00:11:21.143Z,35
2022-12-13T00:12:21.158Z,32
2022-12-13T00:13:21.196Z,34
2022-12-13T00:14:21.240Z,34
2022-12-13T00:15:21.214Z,34
2022-12-13T00:16:21.222Z,35
2022-12-13T00:17:21.219Z,36
2022-12-13T00:18:21.231Z,37
2022-12-13T00:19:21.127Z,33
2022-12-13T00:20:21.201Z,36
2022-12-13T00:21:21.160Z,33
2022-12-13T00:22:21.134Z,35
2022-12-13T00:23:21.144Z,35
2022-12-13T00:24:21.144Z,36
2022-12-13T00:25:21.194Z,35
2022-12-13T00:26:21.176Z,30
2022-12-13T00:27:21.183Z,33
2022-12-13T00:28:21.155Z,36
2022-12-13T00:29:21.187Z,30
2022-12-13T00:30:21.130Z,29
2022-12-13T00:31:56.830Z,33
2022-12-13T00:32:21.303Z,30
2022-12-13T00:33:21.113Z,33
2022-12-13T00:34:21.121Z,33
2022-12-13T00:35:21.140Z,34
2022-12-13T00:36:21.171Z,34
2022-12-13T00:37:21.176Z,35
2022-12-13T00:38:21.134Z,33
2022-12-13T00:39:21.128Z,31
2022-12-13T00:40:21.264Z,33
2022-12-13T00:41:21.158Z,32
2022-12-13T00:42:21.239Z,33
2022-12-13T00:43:21.163Z,33
2022-12-13T00:44:21.162Z,32
2022-12-13T00:45:21.180Z,32
2022-12-13T00:46:21.341Z,34
2022-12-13T00:47:21.181Z,31
2022-12-13T00:48:21.119Z,32
2022-12-13T00:49:21.200Z,32
2022-12-13T00:50:21.127Z,34
2022-12-13T00:51:21.114Z,32
2022-12-13T00:52:21.159Z,32
2022-12-13T00:53:21.125Z,34
2022-12-13T00:54:22.744Z,32
2022-12-13T00:55:21.156Z,31
2022-12-13T00:56:21.138Z,30
2022-12-13T00:57:21.125Z,34
2022-12-13T00:58:21.121Z,34
2022-12-13T00:59:21.191Z,29
2022-12-13T01:00:21.197Z,33
2022-12-13T01:01:21.339Z,32
2022-12-13T01:02:21.107Z,30
2022-12-13T01:03:21.183Z,31
2022-12-13T01:04:21.200Z,34
2022-12-13T01:05:46.074Z,33
2022-12-13T01:06:21.122Z,30
2022-12-13T01:07:21.179Z,35
2022-12-13T01:08:21.239Z,31
2022-12-13T01:09:21.136Z,31
2022-12-13T01:10:21.144Z,30
2022-12-13T01:11:21.194Z,30
2022-12-13T01:12:21.111Z,30
2022-12-13T01:13:21.172Z,33
2022-12-13T01:14:21.169Z,29
2022-12-13T01:15:21.149Z,32
2022-12-13T01:16:21.240Z,29
2022-12-13T01:17:21.182Z,33
2022-12-13T01:18:21.189Z,31
2022-12-13T01:19:21.191Z,34
2022-12-13T01:20:21.118Z,33
2022-12-13T01:21:22.187Z,32
2022-12-13T01:22:21.115Z,32
2022-12-13T01:23:21.220Z,33
2022-12-13T01:24:21.145Z,34
2022-12-13T01:25:21.113Z,34
2022-12-13T01:26:21.127Z,36
2022-12-13T01:27:21.146Z,32
2022-12-13T01:28:21.129Z,32
2022-12-13T01:29:21.174Z,33
2022-12-13T01:30:21.131Z,30
2022-12-13T01:31:21.275Z,34
2022-12-13T01:32:21.150Z,34
2022-12-13T01:33:21.187Z,36
2022-12-13T01:34:21.219Z,32
2022-12-13T01:35:21.208Z,32
2022-12-13T01:36:27.097Z,34
2022-12-13T01:37:21.207Z,37
2022-12-13T01:38:21.127Z,34
2022-12-13T01:39:21.222Z,31
2022-12-13T01:40:21.239Z,34
2022-12-13T01:41:21.131Z,33
2022-12-13T01:42:21.164Z,34
2022-12-13T01:43:21.116Z,32
2022-12-13T01:44:21.126Z,34
2022-12-13T01:45:21.119Z,32
2022-12-13T01:46:21.175Z,34
2022-12-13T01:47:21.140Z,37
2022-12-13T01:48:21.119Z,35
2022-12-13T01:49:21.116Z,36
2022-12-13T01:50:21.131Z,31
2022-12-13T01:51:21.165Z,35
2022-12-13T01:52:21.119Z,35
2022-12-13T01:53:21.105Z,31
2022-12-13T01:54:21.586Z,29
2022-12-13T01:55:21.585Z,32
2022-12-13T01:56:21.125Z,34
2022-12-13T01:57:21.112Z,31
2022-12-13T01:58:21.116Z,32
2022-12-13T01:59:21.143Z,29
2022-12-13T02:00:21.156Z,33
2022-12-13T02:01:21.238Z,32
2022-12-13T02:02:21.173Z,32
2022-12-13T02:03:22.010Z,32
2022-12-13T02:04:21.182Z,33
2022-12-13T02:05:21.265Z,33
2022-12-13T02:06:21.126Z,32
2022-12-13T02:07:23.346Z,31
2022-12-13T02:08:21.145Z,34
2022-12-13T02:09:21.200Z,31
2022-12-13T02:10:21.160Z,33
2022-12-13T02:11:21.127Z,33
2022-12-13T02:12:21.104Z,30
2022-12-13T02:13:21.134Z,31
2022-12-13T02:14:21.112Z,31
2022-12-13T02:15:21.117Z,26
2022-12-13T02:16:21.985Z,32
2022-12-13T02:17:21.160Z,31
2022-12-13T02:18:21.171Z,33
2022-12-13T02:19:21.130Z,33
2022-12-13T02:20:21.647Z,34
2022-12-13T02:21:21.192Z,33
2022-12-13T02:22:21.200Z,30
2022-12-13T02:23:21.197Z,33
2022-12-13T02:24:21.165Z,34
2022-12-13T02:25:21.118Z,32
2022-12-13T02:26:21.142Z,37
2022-12-13T02:27:30.367Z,40
2022-12-13T02:28:30.369Z,41
2022-12-13T02:29:30.513Z,38
2022-12-13T02:30:21.132Z,43
2022-12-13T02:31:21.239Z,38
2022-12-13T02:32:21.116Z,35
2022-12-13T02:33:21.735Z,33
2022-12-13T02:34:21.172Z,32
2022-12-13T02:35:21.170Z,32
2022-12-13T02:36:21.181Z,34
2022-12-13T02:37:21.105Z,33
2022-12-13T02:38:24.481Z,35
2022-12-13T02:39:30.119Z,31
2022-12-13T02:40:21.200Z,32
2022-12-13T02:41:21.106Z,34
2022-12-13T02:42:22.243Z,32
2022-12-13T02:43:21.374Z,31
2022-12-13T02:44:22.818Z,32
2022-12-13T02:45:21.332Z,30
2022-12-13T02:46:21.154Z,35
2022-12-13T02:47:21.759Z,31
2022-12-13T02:48:21.127Z,33
2022-12-13T02:49:21.140Z,30
2022-12-13T02:50:21.142Z,30
2022-12-13T02:51:21.091Z,31
2022-12-13T02:52:22.414Z,30
2022-12-13T02:53:21.186Z,29
2022-12-13T02:54:21.183Z,28
2022-12-13T02:55:26.540Z,31
2022-12-13T02:56:21.103Z,33
2022-12-13T02:57:21.720Z,27
2022-12-13T02:58:21.130Z,31
2022-12-13T02:59:21.107Z,30
2022-12-13T03:00:21.128Z,32
2022-12-13T03:01:28.581Z,31
2022-12-13T03:02:30.837Z,31
2022-12-13T03:03:21.279Z,36
2022-12-13T03:04:26.212Z,33
2022-12-13T03:05:21.164Z,32
2022-12-13T03:06:21.259Z,32
2022-12-13T03:07:21.170Z,31
2022-12-13T03:08:21.453Z,32
2022-12-13T03:09:21.305Z,30
2022-12-13T03:10:21.393Z,32
2022-12-13T03:11:21.354Z,35
2022-12-13T03:12:21.209Z,33
2022-12-13T03:13:21.211Z,31
2022-12-13T03:14:21.207Z,33
2022-12-13T03:15:21.149Z,31
2022-12-13T03:16:22.699Z,35
2022-12-13T03:17:21.156Z,33
2022-12-13T03:18:21.152Z,34
2022-12-13T03:19:21.144Z,30
2022-12-13T03:20:23.167Z,36
2022-12-13T03:21:21.140Z,32
2022-12-13T03:22:21.164Z,32
2022-12-13T03:23:21.098Z,34
2022-12-13T03:24:21.188Z,34
2022-12-13T03:25:31.407Z,33
2022-12-13T03:26:21.199Z,31
2022-12-13T03:27:21.194Z,29
2022-12-13T03:28:21.209Z,35
2022-12-13T03:29:23.572Z,32
2022-12-13T03:30:21.123Z,34
2022-12-13T03:31:21.174Z,34
2022-12-13T03:32:21.092Z,33
2022-12-13T03:33:21.098Z,33
2022-12-13T03:34:22.937Z,33
2022-12-13T03:35:22.289Z,32
2022-12-13T03:36:21.848Z,32
2022-12-13T03:37:21.140Z,33
2022-12-13T03:38:21.800Z,34
2022-12-13T03:39:21.103Z,29
2022-12-13T03:40:21.100Z,32
2022-12-13T03:41:21.179Z,32
2022-12-13T03:42:21.190Z,31
2022-12-13T03:43:22.045Z,31
2022-12-13T03:44:21.139Z,33
2022-12-13T03:45:21.202Z,32
2022-12-13T03:46:21.438Z,33
2022-12-13T03:47:21.257Z,35
2022-12-13T03:48:22.162Z,31
2022-12-13T03:49:21.229Z,35
2022-12-13T03:50:26.458Z,35
2022-12-13T03:51:21.311Z,35
2022-12-13T03:52:21.376Z,32
2022-12-13T03:53:23.404Z,34
2022-12-13T03:54:21.340Z,34
2022-12-13T03:55:21.398Z,32
2022-12-13T03:56:21.093Z,37
2022-12-13T03:57:21.099Z,35
2022-12-13T03:58:21.204Z,32
2022-12-13T03:59:21.212Z,35
2022-12-13T04:00:21.219Z,36
2022-12-13T04:01:21.260Z,31
2022-12-13T04:02:30.825Z,33
2022-12-13T04:03:21.110Z,35
2022-12-13T04:04:21.104Z,33
2022-12-13T04:05:21.138Z,34
2022-12-13T04:06:22.798Z,31
2022-12-13T04:07:22.592Z,30
2022-12-13T04:08:21.908Z,32
2022-12-13T04:09:21.187Z,35
2022-12-13T04:10:25.456Z,33
2022-12-13T04:11:21.186Z,34
2022-12-13T04:12:21.183Z,32
2022-12-13T04:13:21.199Z,34
2022-12-13T04:14:21.862Z,32
2022-12-13T04:15:21.187Z,34
2022-12-13T04:16:21.214Z,32
2022-12-13T04:17:21.241Z,33
2022-12-13T04:18:21.117Z,33
2022-12-13T04:19:23.300Z,36
2022-12-13T04:20:21.123Z,30
2022-12-13T04:21:21.138Z,33
2022-12-13T04:22:24.892Z,31
2022-12-13T04:23:21.156Z,33
2022-12-13T04:24:21.152Z,33
2022-12-13T04:25:21.155Z,35
2022-12-13T04:26:21.083Z,34
2022-12-13T04:27:21.095Z,31
2022-12-13T04:28:21.982Z,34
2022-12-13T04:29:21.087Z,35
2022-12-13T04:30:21.196Z,33
2022-12-13T04:31:21.217Z,34
2022-12-13T04:32:26.404Z,33
2022-12-13T04:33:21.148Z,30
2022-12-13T04:34:21.114Z,30
2022-12-13T04:35:21.154Z,31
2022-12-13T04:36:31.672Z,31
2022-12-13T04:37:21.140Z,35
2022-12-13T04:38:21.090Z,32
2022-12-13T04:39:21.914Z,30
2022-12-13T04:40:21.876Z,32
2022-12-13T04:41:21.091Z,33
2022-12-13T04:42:21.136Z,30
2022-12-13T04:43:21.167Z,37
2022-12-13T04:44:28.910Z,31
2022-12-13T04:45:21.185Z,30
2022-12-13T04:46:21.076Z,30
2022-12-13T04:47:21.115Z,31
2022-12-13T04:48:31.054Z,32
2022-12-13T04:49:21.090Z,33
2022-12-13T04:50:21.126Z,34
2022-12-13T04:51:21.113Z,30
2022-12-13T04:52:22.238Z,32
2022-12-13T04:53:21.092Z,33
2022-12-13T04:54:23.291Z,30
2022-12-13T04:55:21.160Z,32
2022-12-13T04:56:21.169Z,32
2022-12-13T04:57:21.163Z,33
2022-12-13T04:58:22.989Z,31
2022-12-13T04:59:21.174Z,30
2022-12-13T05:00:21.289Z,35
2022-12-13T05:01:21.284Z,36
2022-12-13T05:02:23.778Z,32
2022-12-13T05:03:21.188Z,33
2022-12-13T05:04:21.096Z,30
2022-12-13T05:05:21.079Z,31
2022-12-13T05:06:27.243Z,34
2022-12-13T05:07:21.119Z,32
2022-12-13T05:08:21.187Z,31
2022-12-13T05:09:21.099Z,34
2022-12-13T05:10:37.464Z,34
2022-12-13T05:11:22.888Z,29
2022-12-13T05:12:23.317Z,31
2022-12-13T05:13:21.087Z,32
2022-12-13T05:14:23.500Z,29
2022-12-13T05:15:21.135Z,29
2022-12-13T05:16:21.093Z,32
2022-12-13T05:17:21.085Z,30
2022-12-13T05:18:21.143Z,29
2022-12-13T05:19:21.151Z,34
2022-12-13T05:20:21.080Z,31
2022-12-13T05:21:21.087Z,30
2022-12-13T05:22:21.403Z,34
2022-12-13T05:23:22.713Z,32
2022-12-13T05:24:21.073Z,31
2022-12-13T05:25:21.078Z,29
2022-12-13T05:26:21.163Z,28
2022-12-13T05:27:25.807Z,31
2022-12-13T05:28:27.911Z,32
2022-12-13T05:29:21.091Z,30
2022-12-13T05:30:21.078Z,32
2022-12-13T05:31:23.079Z,30
2022-12-13T05:32:21.224Z,32
2022-12-13T05:33:21.075Z,32
2022-12-13T05:34:21.115Z,30
2022-12-13T05:35:22.633Z,29
2022-12-13T05:36:21.107Z,28
2022-12-13T05:37:21.080Z,32
2022-12-13T05:38:21.113Z,28
2022-12-13T05:39:29.295Z,29
2022-12-13T05:40:21.132Z,29
2022-12-13T05:41:21.078Z,29
2022-12-13T05:42:21.116Z,28
2022-12-13T05:43:22.449Z,30
2022-12-13T05:44:21.075Z,31
2022-12-13T05:45:21.173Z,30
2022-12-13T05:46:21.102Z,32
2022-12-13T05:47:21.064Z,33
2022-12-13T05:48:24.493Z,32
2022-12-13T05:49:21.092Z,29
2022-12-13T05:50:21.228Z,30
2022-12-13T05:51:21.079Z,30
2022-12-13T05:52:21.093Z,33
2022-12-13T05:53:30.883Z,30
2022-12-13T05:54:21.126Z,32
2022-12-13T05:55:21.077Z,32
2022-12-13T05:56:22.539Z,28
2022-12-13T05:57:21.125Z,38
2022-12-13T05:58:23.334Z,30
2022-12-13T05:59:21.154Z,34
2022-12-13T06:00:29.560Z,34
2022-12-13T06:01:21.066Z,30
2022-12-13T06:02:21.828Z,29
2022-12-13T06:03:21.281Z,29
2022-12-13T06:04:22.546Z,30
2022-12-13T06:05:21.156Z,29
2022-12-13T06:06:21.135Z,32
2022-12-13T06:07:21.108Z,32
2022-12-13T06:08:24.588Z,30
2022-12-13T06:09:21.069Z,29
2022-12-13T06:10:21.968Z,29
2022-12-13T06:11:30.986Z,33
2022-12-13T06:12:31.638Z,30
2022-12-13T06:13:32.021Z,28
2022-12-13T06:14:21.878Z,31
2022-12-13T06:15:22.553Z,33
2022-12-13T06:16:21.962Z,30
2022-12-13T06:17:21.633Z,31
2022-12-13T06:18:21.070Z,31
2022-12-13T06:19:21.074Z,29
2022-12-13T06:20:23.319Z,29
2022-12-13T06:21:21.150Z,32
2022-12-13T06:22:21.114Z,27
2022-12-13T06:23:21.077Z,31
2022-12-13T06:24:21.123Z,33
2022-12-13T06:25:31.255Z,34
2022-12-13T06:26:21.113Z,32
2022-12-13T06:27:21.134Z,29
2022-12-13T06:28:21.129Z,30
2022-12-13T06:29:24.540Z,29
2022-12-13T06:30:21.102Z,29
2022-12-13T06:31:21.104Z,30
2022-12-13T06:32:21.155Z,29
2022-12-13T06:33:23.225Z,30
2022-12-13T06:34:21.067Z,30
2022-12-13T06:35:28.360Z,32
2022-12-13T06:36:21.069Z,26
2022-12-13T06:37:21.107Z,32
2022-12-13T06:38:31.086Z,30
2022-12-13T06:39:21.058Z,32
2022-12-13T06:40:23.180Z,30
2022-12-13T06:41:21.119Z,30
2022-12-13T06:42:22.512Z,29
2022-12-13T06:43:21.063Z,28
2022-12-13T06:44:21.122Z,30
2022-12-13T06:45:21.102Z,27
2022-12-13T06:46:21.140Z,32
2022-12-13T06:47:30.929Z,31
2022-12-13T06:48:21.146Z,36
2022-12-13T06:49:21.164Z,35
2022-12-13T06:50:21.164Z,28
2022-12-13T06:51:22.864Z,30
2022-12-13T06:52:21.178Z,33
2022-12-13T06:53:21.206Z,30
2022-12-13T06:54:22.125Z,29
2022-12-13T06:55:23.823Z,30
2022-12-13T06:56:21.200Z,30
2022-12-13T06:57:21.118Z,30
2022-12-13T06:58:21.170Z,31
2022-12-13T06:59:21.346Z,30
2022-12-13T07:00:22.409Z,33
2022-12-13T07:01:24.380Z,32
2022-12-13T07:02:25.514Z,29
2022-12-13T07:03:21.163Z,32
2022-12-13T07:04:29.741Z,34
2022-12-13T07:05:21.176Z,31
2022-12-13T07:06:21.118Z,35
2022-12-13T07:07:21.050Z,27
2022-12-13T07:08:22.570Z,30
2022-12-13T07:09:21.192Z,28
2022-12-13T07:10:22.044Z,31
2022-12-13T07:11:21.098Z,29
2022-12-13T07:12:21.229Z,27
2022-12-13T07:13:21.066Z,29
2022-12-13T07:14:21.061Z,28
2022-12-13T07:15:21.060Z,29
2022-12-13T07:16:21.129Z,29
2022-12-13T07:17:32.750Z,27
2022-12-13T07:18:21.053Z,30
2022-12-13T07:19:23.672Z,29
2022-12-13T07:20:21.070Z,29
2022-12-13T07:21:21.932Z,27
2022-12-13T07:22:21.062Z,30
2022-12-13T07:23:24.591Z,27
2022-12-13T07:24:21.186Z,27
2022-12-13T07:25:28.074Z,28
2022-12-13T07:26:21.050Z,28
2022-12-13T07:27:21.104Z,26
2022-12-13T07:28:21.212Z,28
2022-12-13T07:29:22.576Z,28
2022-12-13T07:30:21.049Z,27
2022-12-13T07:31:21.207Z,29
2022-12-13T07:32:21.084Z,29
2022-12-13T07:33:22.695Z,31
2022-12-13T07:34:21.126Z,26
2022-12-13T07:35:21.252Z,27
2022-12-13T07:36:21.165Z,28
2022-12-13T07:37:30.595Z,27
2022-12-13T07:38:21.407Z,29
2022-12-13T07:39:21.259Z,27
2022-12-13T07:40:21.321Z,28
2022-12-13T07:41:23.949Z,29
2022-12-13T07:42:21.043Z,30
2022-12-13T07:43:21.835Z,28
2022-12-13T07:44:21.037Z,30
2022-12-13T07:45:21.036Z,28
2022-12-13T07:46:31.824Z,28
2022-12-13T07:47:21.112Z,27
2022-12-13T07:48:21.081Z,28
2022-12-13T07:49:21.055Z,27
2022-12-13T07:50:23.965Z,26
2022-12-13T07:51:21.041Z,28
2022-12-13T07:52:21.044Z,27
2022-12-13T07:53:21.606Z,28
2022-12-13T07:54:21.065Z,28
2022-12-13T07:55:33.179Z,25
2022-12-13T07:56:21.080Z,24
2022-12-13T07:57:21.054Z,29
2022-12-13T07:58:21.051Z,29
2022-12-13T07:59:28.776Z,27
2022-12-13T08:00:21.047Z,28
2022-12-13T08:01:21.171Z,25
2022-12-13T08:02:21.037Z,24
2022-12-13T08:03:24.305Z,25
2022-12-13T08:04:21.154Z,24
2022-12-13T08:05:26.657Z,27
2022-12-13T08:06:21.055Z,27
2022-12-13T08:07:21.043Z,26
2022-12-13T08:08:21.097Z,26
2022-12-13T08:09:21.028Z,28
2022-12-13T08:10:21.072Z,26
2022-12-13T08:11:21.098Z,24
2022-12-13T08:12:22.732Z,27
2022-12-13T08:13:21.498Z,24
2022-12-13T08:14:21.048Z,27
2022-12-13T08:15:21.044Z,26
2022-12-13T08:16:26.243Z,24
2022-12-13T08:17:21.057Z,25
2022-12-13T08:18:21.027Z,26
2022-12-13T08:19:21.098Z,26
2022-12-13T08:20:22.024Z,27
2022-12-13T08:21:51.643Z,26
2022-12-13T08:22:24.028Z,26
2022-12-13T08:23:21.241Z,24
2022-12-13T08:24:21.040Z,26
2022-12-13T08:25:21.055Z,28
2022-12-13T08:26:21.051Z,27
2022-12-13T08:27:21.089Z,28
2022-12-13T08:28:21.062Z,25
2022-12-13T08:29:22.250Z,22
2022-12-13T08:30:22.670Z,24
2022-12-13T08:31:21.128Z,26
2022-12-13T08:32:21.029Z,23
2022-12-13T08:33:21.375Z,26
2022-12-13T08:34:21.085Z,24
2022-12-13T08:35:21.086Z,27
2022-12-13T08:36:21.039Z,24
2022-12-13T08:37:21.041Z,28
2022-12-13T08:38:22.943Z,25
2022-12-13T08:39:21.021Z,26
2022-12-13T08:40:21.036Z,23
2022-12-13T08:41:21.026Z,25
2022-12-13T08:42:21.137Z,24
2022-12-13T08:43:24.416Z,24
2022-12-13T08:44:21.226Z,25
2022-12-13T08:45:21.079Z,24
2022-12-13T08:46:21.241Z,26
2022-12-13T08:47:23.073Z,26
2022-12-13T08:48:21.401Z,26
2022-12-13T08:49:21.071Z,25
2022-12-13T08:50:21.065Z,27
2022-12-13T08:51:25.072Z,23
2022-12-13T08:52:21.105Z,24
2022-12-13T08:53:28.131Z,26
2022-12-13T08:54:31.694Z,26
2022-12-13T08:55:31.588Z,26
2022-12-13T08:56:21.215Z,24
2022-12-13T08:57:21.034Z,26
2022-12-13T08:58:21.076Z,23
2022-12-13T08:59:21.110Z,25
2022-12-13T09:00:21.037Z,24
2022-12-13T09:01:21.067Z,27
2022-12-13T09:02:21.085Z,24
2022-12-13T09:03:21.242Z,25
2022-12-13T09:04:32.061Z,23
2022-12-13T09:05:32.978Z,30
2022-12-13T09:06:21.078Z,27
2022-12-13T09:07:21.135Z,24
2022-12-13T09:08:24.424Z,26
2022-12-13T09:09:21.058Z,25
2022-12-13T09:10:25.824Z,24
2022-12-13T09:11:34.669Z,25
2022-12-13T09:12:29.711Z,24
2022-12-13T09:13:31.334Z,26
2022-12-13T09:14:23.656Z,22
2022-12-13T09:15:21.952Z,24
2022-12-13T09:16:23.500Z,26
2022-12-13T09:17:24.693Z,23
2022-12-13T09:18:24.080Z,26
2022-12-13T09:19:25.055Z,24
2022-12-13T09:20:29.093Z,28
2022-12-13T09:21:22.008Z,27
2022-12-13T09:22:32.797Z,27
2022-12-13T09:23:24.085Z,25
2022-12-13T09:24:24.184Z,27
2022-12-13T09:25:24.165Z,24
2022-12-13T09:26:25.373Z,24
2022-12-13T09:27:27.212Z,27
2022-12-13T09:28:21.014Z,26
2022-12-13T09:29:21.080Z,25
2022-12-13T09:30:21.159Z,23
2022-12-13T09:31:21.086Z,26
2022-12-13T09:32:21.084Z,25
2022-12-13T09:33:30.017Z,24
2022-12-13T09:34:21.064Z,23
2022-12-13T09:35:21.016Z,24
2022-12-13T09:36:21.025Z,25
2022-12-13T09:37:23.099Z,25
2022-12-13T09:38:21.061Z,27
2022-12-13T09:39:21.016Z,24
2022-12-13T09:40:25.305Z,24
2022-12-13T09:41:29.230Z,26
2022-12-13T09:42:21.047Z,22
2022-12-13T09:43:21.705Z,23
2022-12-13T09:44:31.575Z,24
2022-12-13T09:45:22.823Z,24
2022-12-13T09:46:22.766Z,25
2022-12-13T09:47:22.819Z,25
2022-12-13T09:48:22.758Z,25
2022-12-13T09:49:23.129Z,24
2022-12-13T09:50:25.124Z,22
2022-12-13T09:51:27.237Z,24
2022-12-13T09:52:21.776Z,24
2022-12-13T09:53:21.732Z,23
2022-12-13T09:54:21.007Z,25
2022-12-13T09:55:21.008Z,22
2022-12-13T09:56:21.011Z,25
2022-12-13T09:57:32.146Z,23
2022-12-13T09:58:21.607Z,27
2022-12-13T09:59:21.011Z,24
2022-12-13T10:00:21.052Z,25
2022-12-13T10:01:23.630Z,24
2022-12-13T10:02:21.095Z,22
2022-12-13T10:03:21.482Z,22
2022-12-13T10:04:21.078Z,25
2022-12-13T10:05:22.634Z,23
2022-12-13T10:06:23.200Z,24
2022-12-13T10:07:21.020Z,25
2022-12-13T10:08:21.050Z,25
2022-12-13T10:09:21.073Z,25
2022-12-13T10:10:21.114Z,23
2022-12-13T10:11:21.016Z,26
2022-12-13T10:12:21.012Z,23
2022-12-13T10:13:21.314Z,22
2022-12-13T10:14:21.005Z,22
2022-12-13T10:15:22.381Z,23
2022-12-13T10:16:23.892Z,22
2022-12-13T10:17:21.155Z,25
2022-12-13T10:18:21.070Z,23
2022-12-13T10:19:28.783Z,24
2022-12-13T10:20:21.033Z,27
2022-12-13T10:21:21.163Z,21
2022-12-13T10:22:21.014Z,26
2022-12-13T10:23:38.738Z,26
2022-12-13T10:24:29.019Z,23
2022-12-13T10:25:21.064Z,24
2022-12-13T10:26:24.145Z,31
2022-12-13T10:27:21.010Z,30
2022-12-13T10:28:21.019Z,37
2022-12-13T10:29:21.031Z,39
2022-12-13T10:30:26.339Z,37
2022-12-13T10:31:21.078Z,31
2022-12-13T10:32:21.158Z,25
2022-12-13T10:33:24.237Z,26
2022-12-13T10:34:21.072Z,26
2022-12-13T10:35:21.008Z,22
2022-12-13T10:36:25.060Z,26
2022-12-13T10:37:21.111Z,24
2022-12-13T10:38:21.012Z,24
2022-12-13T10:39:21.005Z,23
2022-12-13T10:40:32.379Z,22
2022-12-13T10:41:21.104Z,23
2022-12-13T10:42:22.446Z,23
2022-12-13T10:43:21.424Z,22
2022-12-13T10:44:21.139Z,21
2022-12-13T10:45:23.047Z,21
2022-12-13T10:46:25.007Z,22
2022-12-13T10:47:21.010Z,22
2022-12-13T10:48:21.170Z,24
2022-12-13T10:49:21.005Z,21
2022-12-13T10:50:21.025Z,20
2022-12-13T10:51:21.089Z,22
2022-12-13T10:52:30.779Z,23
2022-12-13T10:53:22.873Z,22
2022-12-13T10:54:21.099Z,22
2022-12-13T10:55:23.108Z,24
2022-12-13T10:56:23.331Z,21
2022-12-13T10:57:21.006Z,22
2022-12-13T10:58:21.120Z,21
2022-12-13T10:59:21.029Z,20
2022-12-13T11:00:21.000Z,22
2022-12-13T11:01:21.122Z,20
2022-12-13T11:02:21.165Z,20
2022-12-13T11:03:21.385Z,23
2022-12-13T11:04:25.519Z,19
2022-12-13T11:05:23.091Z,20
2022-12-13T11:06:21.173Z,20
2022-12-13T11:07:21.004Z,21
2022-12-13T11:08:21.018Z,19
2022-12-13T11:09:23.285Z,20
2022-12-13T11:10:26.679Z,21
2022-12-13T11:11:21.056Z,22
2022-12-13T11:12:21.039Z,21
2022-12-13T11:13:21.241Z,19
2022-12-13T11:14:21.005Z,20
2022-12-13T11:15:23.143Z,21
2022-12-13T11:16:21.079Z,21
2022-12-13T11:17:21.059Z,23
2022-12-13T11:18:21.304Z,22
2022-12-13T11:19:21.147Z,21
2022-12-13T11:20:21.093Z,23
2022-12-13T11:21:21.005Z,21
2022-12-13T11:22:21.122Z,22
2022-12-13T11:23:21.093Z,20
2022-12-13T11:24:22.880Z,19
2022-12-13T11:25:21.011Z,21
2022-12-13T11:26:24.607Z,20
2022-12-13T11:27:21.110Z,20
2022-12-13T11:28:26.381Z,20
2022-12-13T11:29:21.118Z,22
2022-12-13T11:30:21.007Z,21
2022-12-13T11:31:21.142Z,21
2022-12-13T11:32:22.326Z,22
2022-12-13T11:33:21.010Z,18
2022-12-13T11:34:21.162Z,19
2022-12-13T11:35:21.041Z,20
2022-12-13T11:36:21.062Z,21
2022-12-13T11:37:21.011Z,21
2022-12-13T11:38:21.011Z,21
2022-12-13T11:39:21.014Z,22
2022-12-13T11:40:21.005Z,21
2022-12-13T11:41:31.301Z,20
2022-12-13T11:42:21.097Z,22
2022-12-13T11:43:21.054Z,27
2022-12-13T11:44:21.009Z,29
2022-12-13T11:45:22.506Z,25
2022-12-13T11:46:21.083Z,25
2022-12-13T11:47:21.032Z,24
2022-12-13T11:48:21.004Z,31
2022-12-13T11:49:21.002Z,25
2022-12-13T11:50:33.750Z,30
2022-12-13T11:51:21.057Z,31
2022-12-13T11:52:20.997Z,29
2022-12-13T11:53:21.000Z,28
2022-12-13T11:54:24.081Z,33
2022-12-13T11:55:21.010Z,37
2022-12-13T11:56:21.068Z,33
2022-12-13T11:57:21.014Z,29
2022-12-13T11:58:38.502Z,39
2022-12-13T11:59:26.540Z,43
2022-12-13T12:00:34.344Z,38
2022-12-13T12:01:20.998Z,40
2022-12-13T12:02:21.077Z,51
2022-12-13T12:03:21.044Z,39
2022-12-13T12:04:21.025Z,30
2022-12-13T12:05:21.028Z,30
2022-12-13T12:06:21.052Z,32
2022-12-13T12:07:33.920Z,24
2022-12-13T12:08:31.807Z,33
2022-12-13T12:09:20.991Z,33
2022-12-13T12:10:21.084Z,32
2022-12-13T12:11:21.002Z,31
2022-12-13T12:12:21.917Z,34
2022-12-13T12:13:21.092Z,33
2022-12-13T12:14:21.090Z,37
2022-12-13T12:15:26.662Z,31
2022-12-13T12:16:21.122Z,29
2022-12-13T12:17:20.991Z,31
2022-12-13T12:18:21.016Z,37
2022-12-13T12:19:21.000Z,39
2022-12-13T12:20:23.960Z,37
2022-12-13T12:21:21.203Z,37
2022-12-13T12:22:21.140Z,40
2022-12-13T12:23:21.034Z,34
2022-12-13T12:24:21.103Z,28
2022-12-13T12:25:21.221Z,43
2022-12-13T12:26:21.285Z,41
2022-12-13T12:27:22.618Z,42
2022-12-13T12:28:21.000Z,26
2022-12-13T12:29:21.050Z,20
2022-12-13T12:30:23.385Z,22
2022-12-13T12:31:21.041Z,20
2022-12-13T12:32:20.996Z,20
2022-12-13T12:33:21.006Z,18
2022-12-13T12:34:27.318Z,20
2022-12-13T12:35:21.065Z,17
2022-12-13T12:36:21.005Z,17
2022-12-13T12:37:21.068Z,20
2022-12-13T12:38:21.095Z,25
2022-12-13T12:39:26.327Z,18
2022-12-13T12:40:20.996Z,17
2022-12-13T12:41:21.007Z,17
2022-12-13T12:42:21.006Z,16
2022-12-13T12:43:20.993Z,16
2022-12-13T12:44:20.994Z,17
2022-12-13T12:45:54.745Z,18
2022-12-13T12:46:21.095Z,15
2022-12-13T12:47:48.949Z,16
2022-12-13T12:49:00.629Z,18
2022-12-13T12:49:21.082Z,17
2022-12-13T12:50:20.994Z,17
2022-12-13T12:51:21.007Z,15
2022-12-13T12:52:21.017Z,16
2022-12-13T12:53:21.039Z,17
2022-12-13T12:54:20.988Z,18
2022-12-13T12:55:20.997Z,15
2022-12-13T12:56:21.038Z,16
2022-12-13T12:57:20.987Z,17
2022-12-13T12:58:21.003Z,16
2022-12-13T12:59:20.997Z,17
2022-12-13T13:00:21.061Z,16
2022-12-13T13:01:21.139Z,18
2022-12-13T13:02:21.224Z,18
2022-12-13T13:03:23.174Z,19
2022-12-13T13:04:22.814Z,23
2022-12-13T13:05:20.993Z,20
2022-12-13T13:06:21.010Z,22
2022-12-13T13:07:23.582Z,19
2022-12-13T13:08:21.047Z,18
2022-12-13T13:09:24.390Z,15
2022-12-13T13:10:26.054Z,16
2022-12-13T13:11:23.809Z,18
2022-12-13T13:12:29.162Z,16
2022-12-13T13:13:33.186Z,15
2022-12-13T13:14:21.094Z,16
2022-12-13T13:15:21.014Z,17
2022-12-13T13:16:21.190Z,17
2022-12-13T13:17:21.080Z,15
2022-12-13T13:18:21.004Z,15
2022-12-13T13:19:25.761Z,16
2022-12-13T13:20:21.076Z,16
2022-12-13T13:21:21.002Z,16
2022-12-13T13:22:30.704Z,18
2022-12-13T13:23:39.136Z,16
2022-12-13T13:24:21.050Z,15
2022-12-13T13:25:21.072Z,14
2022-12-13T13:26:28.148Z,13
2022-12-13T13:27:21.027Z,14
2022-12-13T13:28:21.003Z,15
2022-12-13T13:29:27.902Z,15
2022-12-13T13:30:21.031Z,13
2022-12-13T13:31:21.091Z,15
2022-12-13T13:32:29.212Z,17
2022-12-13T13:33:21.038Z,15
2022-12-13T13:34:21.096Z,16
2022-12-13T13:35:21.143Z,15
2022-12-13T13:36:28.918Z,16
2022-12-13T13:37:23.151Z,16
2022-12-13T13:38:21.006Z,18
2022-12-13T13:39:21.099Z,16
2022-12-13T13:40:30.421Z,18
2022-12-13T13:41:21.063Z,16
2022-12-13T13:42:21.051Z,15
2022-12-13T13:43:20.998Z,17
2022-12-13T13:44:21.000Z,16
2022-12-13T13:45:21.080Z,16
2022-12-13T13:46:21.085Z,18
2022-12-13T13:47:21.081Z,15
2022-12-13T13:48:21.084Z,16
2022-12-13T13:49:21.006Z,18
2022-12-13T13:50:21.112Z,19
2022-12-13T13:51:21.135Z,20
2022-12-13T13:52:25.624Z,19
2022-12-13T13:53:20.990Z,17
2022-12-13T13:54:20.992Z,16
2022-12-13T13:55:21.046Z,15
2022-12-13T13:56:21.043Z,18
2022-12-13T13:57:33.235Z,15
2022-12-13T13:58:21.902Z,19
2022-12-13T13:59:20.985Z,16
2022-12-13T14:00:21.000Z,16
2022-12-13T14:01:21.117Z,17
2022-12-13T14:02:21.149Z,15
2022-12-13T14:03:29.258Z,15
2022-12-13T14:04:21.082Z,16
2022-12-13T14:05:21.090Z,14
2022-12-13T14:06:21.011Z,13
2022-12-13T14:07:26.651Z,15
2022-12-13T14:08:21.022Z,13
2022-12-13T14:09:21.007Z,15
2022-12-13T14:10:20.992Z,14
2022-12-13T14:11:21.055Z,16
2022-12-13T14:12:20.982Z,14
2022-12-13T14:13:21.042Z,16
2022-12-13T14:14:22.155Z,15
2022-12-13T14:15:21.047Z,14